createdAt,value
2023-04-16T00:00:02.577Z,7.6
2023-04-16T00:01:15.593Z,7.6
2023-04-16T00:02:28.630Z,7.6
2023-04-16T00:03:41.771Z,7.6
2023-04-16T00:04:54.621Z,7.6
2023-04-16T00:06:07.620Z,7.6
2023-04-16T00:07:20.589Z,7.6
2023-04-16T00:08:33.582Z,7.6
2023-04-16T00:09:46.431Z,7.6
2023-04-16T00:10:59.795Z,7.6
2023-04-16T00:12:12.410Z,7.6
2023-04-16T00:13:25.582Z,7.6
2023-04-16T00:14:38.574Z,7.6
2023-04-16T00:15:51.404Z,7.6
2023-04-16T00:17:04.842Z,7.6
2023-04-16T00:18:17.745Z,7.6
2023-04-16T00:19:30.573Z,7.6
2023-04-16T00:20:43.418Z,7.6
2023-04-16T00:21:57.054Z,7.7
2023-04-16T00:23:10.473Z,7.7
2023-04-16T00:24:22.607Z,7.6
2023-04-16T00:25:35.625Z,7.6
2023-04-16T00:26:48.455Z,7.6
2023-04-16T00:28:01.737Z,7.6
2023-04-16T00:29:14.589Z,7.6
2023-04-16T00:30:27.433Z,7.6
2023-04-16T00:31:40.603Z,7.6
2023-04-16T00:32:53.626Z,7.6
2023-04-16T00:34:06.840Z,7.6
2023-04-16T00:35:19.569Z,7.6
2023-04-16T00:36:32.588Z,7.6
2023-04-16T00:37:45.452Z,7.6
2023-04-16T00:38:58.716Z,7.6
2023-04-16T00:40:11.583Z,7.6
2023-04-16T00:41:24.678Z,7.6
2023-04-16T00:42:37.611Z,7.6
2023-04-16T00:43:50.602Z,7.8
2023-04-16T00:45:03.577Z,7.8
2023-04-16T00:46:16.613Z,7.8
2023-04-16T00:47:29.573Z,7.8
2023-04-16T00:48:42.609Z,7.8
2023-04-16T00:49:55.589Z,7.8
2023-04-16T00:51:08.744Z,7.8
2023-04-16T00:52:21.612Z,7.8
2023-04-16T00:53:34.472Z,7.8
2023-04-16T00:54:47.599Z,7.8
2023-04-16T00:56:00.516Z,7.8
2023-04-16T00:57:13.597Z,7.8
2023-04-16T00:58:26.728Z,7.8
2023-04-16T00:59:39.601Z,7.8
2023-04-16T01:00:52.594Z,7.8
2023-04-16T01:02:05.813Z,7.8
2023-04-16T01:03:18.718Z,7.8
2023-04-16T01:04:31.802Z,7.8
2023-04-16T01:05:44.455Z,7.8
2023-04-16T01:06:57.587Z,7.8
2023-04-16T01:08:10.660Z,7.8
2023-04-16T01:09:23.607Z,7.8
2023-04-16T01:10:36.610Z,7.8
2023-04-16T01:11:49.554Z,7.8
2023-04-16T01:13:02.609Z,7.8
2023-04-16T01:14:15.606Z,7.8
2023-04-16T01:15:28.621Z,7.8
2023-04-16T01:16:41.630Z,7.8
2023-04-16T01:17:54.636Z,7.8
2023-04-16T01:19:08.915Z,7.8
2023-04-16T01:20:20.636Z,7.8
2023-04-16T01:21:33.596Z,7.8
2023-04-16T01:22:46.744Z,7.8
2023-04-16T01:23:59.595Z,7.8
2023-04-16T01:25:12.458Z,7.8
2023-04-16T01:26:25.617Z,7.8
2023-04-16T01:27:38.596Z,7.8
2023-04-16T01:28:51.416Z,7.8
2023-04-16T01:30:04.530Z,7.8
2023-04-16T01:31:17.624Z,7.9
2023-04-16T01:32:30.794Z,7.9
2023-04-16T01:33:43.635Z,7.9
2023-04-16T01:34:57.267Z,7.9
2023-04-16T01:36:10.199Z,7.9
2023-04-16T01:37:22.974Z,7.9
2023-04-16T01:38:35.634Z,7.9
2023-04-16T01:39:48.661Z,7.9
2023-04-16T01:41:01.758Z,7.9
2023-04-16T01:42:14.612Z,7.9
2023-04-16T01:43:27.608Z,7.9
2023-04-16T01:44:40.598Z,7.9
2023-04-16T01:45:53.480Z,7.9
2023-04-16T01:47:06.780Z,7.9
2023-04-16T01:48:19.613Z,7.9
2023-04-16T01:49:32.645Z,7.9
2023-04-16T01:50:45.770Z,7.9
2023-04-16T01:51:58.617Z,7.9
2023-04-16T01:53:11.608Z,7.9
2023-04-16T01:54:24.635Z,7.9
2023-04-16T01:55:37.652Z,7.9
2023-04-16T01:56:50.831Z,7.9
2023-04-16T01:58:03.622Z,7.9
2023-04-16T01:59:16.641Z,7.9
2023-04-16T02:00:29.640Z,7.9
2023-04-16T02:01:42.626Z,7.9
2023-04-16T02:02:55.707Z,7.9
2023-04-16T02:04:08.673Z,7.9
2023-04-16T02:05:21.845Z,7.9
2023-04-16T02:06:34.808Z,7.9
2023-04-16T02:07:47.599Z,7.9
2023-04-16T02:09:00.626Z,7.9
2023-04-16T02:10:14.121Z,7.9
2023-04-16T02:11:26.780Z,7.9
2023-04-16T02:12:39.521Z,7.9
2023-04-16T02:13:52.519Z,7.9
2023-04-16T02:15:05.620Z,7.9
2023-04-16T02:16:18.829Z,7.9
2023-04-16T02:17:31.614Z,7.9
2023-04-16T02:18:44.652Z,7.8
2023-04-16T02:19:57.645Z,7.8
2023-04-16T02:21:10.670Z,7.8
2023-04-16T02:22:23.657Z,7.8
2023-04-16T02:23:36.718Z,7.8
2023-04-16T02:24:49.509Z,7.8
2023-04-16T02:26:03.282Z,7.8
2023-04-16T02:27:15.633Z,7.8
2023-04-16T02:28:28.650Z,7.8
2023-04-16T02:29:41.642Z,7.8
2023-04-16T02:30:54.612Z,7.8
2023-04-16T02:32:07.570Z,7.8
2023-04-16T02:33:20.488Z,7.8
2023-04-16T02:34:33.621Z,7.8
2023-04-16T02:35:46.701Z,7.8
2023-04-16T02:36:59.786Z,7.8
2023-04-16T02:38:12.496Z,7.8
2023-04-16T02:39:25.652Z,7.8
2023-04-16T02:40:38.655Z,7.8
2023-04-16T02:41:52.246Z,7.8
2023-04-16T02:43:04.635Z,7.8
2023-04-16T02:44:17.450Z,7.8
2023-04-16T02:45:30.673Z,7.8
2023-04-16T02:46:43.636Z,7.8
2023-04-16T02:47:56.500Z,7.8
2023-04-16T02:49:09.827Z,7.8
2023-04-16T02:50:22.509Z,7.8
2023-04-16T02:51:35.669Z,7.8
2023-04-16T02:52:48.646Z,7.8
2023-04-16T02:54:01.651Z,7.8
2023-04-16T02:56:27.620Z,7.8
2023-04-16T02:57:40.612Z,7.8
2023-04-16T02:58:54.800Z,7.8
2023-04-16T03:00:06.546Z,7.8
2023-04-16T03:01:19.733Z,7.8
2023-04-16T03:02:32.906Z,7.8
2023-04-16T03:03:45.705Z,7.8
2023-04-16T03:04:58.800Z,7.8
2023-04-16T03:06:11.516Z,7.8
2023-04-16T03:07:24.604Z,7.8
2023-04-16T03:08:37.633Z,7.8
2023-04-16T03:09:50.636Z,7.8
2023-04-16T03:11:03.799Z,7.8
2023-04-16T03:12:16.633Z,7.8
2023-04-16T03:13:29.637Z,7.8
2023-04-16T03:14:42.648Z,7.8
2023-04-16T03:15:55.725Z,7.8
2023-04-16T03:17:08.325Z,7.8
2023-04-16T03:18:21.453Z,7.8
2023-04-16T03:19:34.864Z,7.8
2023-04-16T03:20:47.227Z,7.8
2023-04-16T03:22:00.660Z,7.8
2023-04-16T03:23:13.353Z,7.8
2023-04-16T03:24:26.403Z,7.8
2023-04-16T03:25:39.318Z,7.8
2023-04-16T03:26:52.379Z,7.8
2023-04-16T03:28:05.379Z,7.8
2023-04-16T03:29:18.341Z,7.8
2023-04-16T03:30:31.651Z,7.8
2023-04-16T03:31:44.331Z,7.8
2023-04-16T03:32:57.224Z,7.8
2023-04-16T03:34:10.341Z,7.8
2023-04-16T03:35:23.848Z,7.8
2023-04-16T03:36:36.510Z,7.8
2023-04-16T03:37:49.357Z,7.8
2023-04-16T03:39:02.861Z,7.8
2023-04-16T03:40:15.334Z,7.8
2023-04-16T03:41:28.530Z,7.8
2023-04-16T03:42:41.351Z,7.8
2023-04-16T03:43:54.819Z,7.8
2023-04-16T03:45:07.348Z,7.8
2023-04-16T03:46:20.405Z,7.8
2023-04-16T03:47:33.564Z,7.8
2023-04-16T03:48:46.336Z,7.8
2023-04-16T03:49:59.859Z,7.8
2023-04-16T03:51:12.382Z,7.8
2023-04-16T03:52:25.345Z,7.8
2023-04-16T03:53:38.339Z,7.8
2023-04-16T03:54:51.355Z,7.8
2023-04-16T03:56:04.984Z,7.8
2023-04-16T03:57:17.816Z,7.8
2023-04-16T03:58:30.676Z,7.8
2023-04-16T03:59:43.332Z,7.8
2023-04-16T04:00:56.234Z,7.8
2023-04-16T04:02:09.392Z,7.8
2023-04-16T04:03:23.024Z,7.8
2023-04-16T04:04:35.899Z,7.8
2023-04-16T04:05:48.222Z,7.8
2023-04-16T04:07:01.510Z,7.8
2023-04-16T04:08:14.834Z,7.8
2023-04-16T04:09:27.556Z,7.9
2023-04-16T04:10:40.684Z,7.9
2023-04-16T04:11:53.234Z,7.9
2023-04-16T04:13:06.381Z,7.9
2023-04-16T04:14:19.528Z,7.9
2023-04-16T04:15:32.689Z,7.9
2023-04-16T04:16:45.484Z,7.9
2023-04-16T04:17:58.495Z,7.9
2023-04-16T04:19:12.076Z,7.9
2023-04-16T04:20:24.374Z,7.9
2023-04-16T04:21:37.259Z,7.9
2023-04-16T04:22:50.364Z,7.9
2023-04-16T04:24:03.374Z,7.9
2023-04-16T04:25:16.304Z,7.9
2023-04-16T04:26:29.287Z,7.9
2023-04-16T04:27:42.431Z,7.9
2023-04-16T04:28:55.240Z,7.9
2023-04-16T04:30:08.797Z,7.9
2023-04-16T04:31:21.350Z,7.9
2023-04-16T04:32:34.752Z,7.9
2023-04-16T04:33:47.029Z,7.9
2023-04-16T04:35:00.345Z,7.9
2023-04-16T04:36:13.379Z,7.9
2023-04-16T04:37:26.364Z,7.9
2023-04-16T04:38:39.382Z,7.9
2023-04-16T04:39:52.394Z,7.9
2023-04-16T04:41:05.566Z,7.9
2023-04-16T04:42:18.414Z,7.9
2023-04-16T04:43:31.666Z,7.9
2023-04-16T04:44:44.680Z,7.9
2023-04-16T04:45:57.251Z,7.9
2023-04-16T04:47:10.353Z,7.9
2023-04-16T04:48:23.253Z,7.9
2023-04-16T04:49:36.232Z,7.9
2023-04-16T04:50:49.359Z,7.9
2023-04-16T04:52:02.205Z,7.9
2023-04-16T04:53:15.370Z,7.9
2023-04-16T04:54:28.378Z,7.9
2023-04-16T04:55:41.364Z,7.9
2023-04-16T04:56:54.396Z,7.9
2023-04-16T04:58:07.269Z,7.9
2023-04-16T04:59:20.324Z,7.9
2023-04-16T05:00:33.726Z,7.9
2023-04-16T05:01:46.395Z,7.9
2023-04-16T05:02:59.494Z,7.9
2023-04-16T05:04:12.279Z,7.9
2023-04-16T05:05:25.424Z,7.9
2023-04-16T05:06:38.393Z,8.1
2023-04-16T05:07:51.557Z,8.1
2023-04-16T05:09:04.382Z,8.1
2023-04-16T05:10:17.558Z,8.1
2023-04-16T05:11:30.393Z,8.1
2023-04-16T05:12:43.400Z,8.1
2023-04-16T05:13:56.398Z,8.1
2023-04-16T05:15:09.261Z,8.1
2023-04-16T05:16:22.260Z,8.1
2023-04-16T05:17:35.385Z,8.1
2023-04-16T05:18:48.370Z,8.1
2023-04-16T05:20:01.595Z,8.1
2023-04-16T05:21:14.385Z,8.1
2023-04-16T05:22:27.258Z,8.1
2023-04-16T05:23:40.550Z,8.1
2023-04-16T05:24:53.580Z,8.1
2023-04-16T05:26:06.273Z,8.1
2023-04-16T05:27:19.389Z,8.1
2023-04-16T05:28:32.255Z,8.1
2023-04-16T05:29:45.464Z,8.1
2023-04-16T05:30:58.332Z,8.1
2023-04-16T05:32:11.385Z,8.1
2023-04-16T05:33:24.405Z,8.1
2023-04-16T05:34:37.379Z,8.1
2023-04-16T05:35:50.392Z,8.1
2023-04-16T05:37:03.420Z,8.1
2023-04-16T05:38:16.282Z,8.1
2023-04-16T05:39:29.388Z,8.1
2023-04-16T05:40:42.233Z,8.1
2023-04-16T05:41:55.419Z,8.1
2023-04-16T05:43:08.305Z,8.1
2023-04-16T05:44:21.517Z,8.1
2023-04-16T05:45:34.605Z,8.1
2023-04-16T05:46:47.370Z,8.1
2023-04-16T05:48:00.317Z,8.1
2023-04-16T05:49:13.395Z,8.1
2023-04-16T05:50:26.287Z,8.1
2023-04-16T05:51:39.409Z,8.2
2023-04-16T05:52:52.248Z,8.2
2023-04-16T05:54:05.299Z,8.2
2023-04-16T05:55:18.420Z,8.2
2023-04-16T05:56:31.381Z,8.2
2023-04-16T05:57:44.404Z,8.2
2023-04-16T05:58:57.398Z,8.2
2023-04-16T06:00:10.391Z,8.2
2023-04-16T06:01:23.413Z,8.2
2023-04-16T06:02:36.371Z,8.2
2023-04-16T06:03:49.492Z,8.2
2023-04-16T06:05:02.481Z,8.2
2023-04-16T06:06:15.416Z,8.2
2023-04-16T06:07:28.385Z,8.2
2023-04-16T06:08:41.423Z,8.2
2023-04-16T06:09:54.384Z,8.2
2023-04-16T06:11:07.586Z,8.2
2023-04-16T06:12:20.473Z,8.2
2023-04-16T06:13:33.395Z,8.2
2023-04-16T06:14:46.524Z,8.2
2023-04-16T06:15:59.528Z,8.2
2023-04-16T06:17:12.266Z,8.3
2023-04-16T06:18:25.454Z,8.3
2023-04-16T06:19:38.426Z,8.3
2023-04-16T06:20:51.414Z,8.3
2023-04-16T06:22:04.429Z,8.3
2023-04-16T06:23:17.558Z,8.3
2023-04-16T06:24:30.409Z,8.3
2023-04-16T06:25:43.456Z,8.3
2023-04-16T06:26:56.425Z,8.3
2023-04-16T06:28:09.430Z,8.3
2023-04-16T06:29:24.127Z,8.3
2023-04-16T06:30:35.468Z,8.3
2023-04-16T06:31:48.489Z,8.3
2023-04-16T06:33:02.216Z,8.3
2023-04-16T06:34:14.601Z,8.3
2023-04-16T06:35:27.463Z,8.3
2023-04-16T06:36:40.465Z,8.3
2023-04-16T06:37:53.539Z,8.3
2023-04-16T06:39:06.468Z,8.3
2023-04-16T06:40:19.381Z,8.3
2023-04-16T06:41:32.430Z,8.3
2023-04-16T06:42:45.811Z,8.3
2023-04-16T06:43:58.469Z,8.3
2023-04-16T06:45:11.427Z,8.2
2023-04-16T06:46:24.473Z,8.2
2023-04-16T06:47:37.564Z,8.2
2023-04-16T06:48:50.471Z,8.2
2023-04-16T06:50:03.545Z,8.2
2023-04-16T06:51:16.442Z,8.2
2023-04-16T06:52:29.389Z,8.2
2023-04-16T06:53:42.532Z,8.2
2023-04-16T06:54:55.507Z,8.2
2023-04-16T06:56:08.421Z,8.2
2023-04-16T06:58:34.418Z,8.2
2023-04-16T06:59:47.346Z,8.2
2023-04-16T07:01:00.633Z,8.2
2023-04-16T07:02:13.573Z,8.2
2023-04-16T07:03:26.484Z,8.2
2023-04-16T07:04:39.586Z,8.3
2023-04-16T07:05:52.424Z,8.3
2023-04-16T07:07:05.528Z,8.3
2023-04-16T07:08:18.413Z,8.3
2023-04-16T07:09:31.432Z,8.3
2023-04-16T07:10:44.420Z,8.3
2023-04-16T07:11:57.429Z,8.3
2023-04-16T07:13:10.468Z,8.3
2023-04-16T07:14:23.418Z,8.4
2023-04-16T07:15:36.535Z,8.4
2023-04-16T07:16:49.654Z,8.4
2023-04-16T07:18:02.489Z,8.4
2023-04-16T07:19:15.437Z,8.4
2023-04-16T07:20:28.462Z,8.4
2023-04-16T07:21:41.425Z,8.4
2023-04-16T07:22:54.464Z,8.4
2023-04-16T07:24:07.473Z,8.6
2023-04-16T07:25:20.483Z,8.6
2023-04-16T07:26:33.514Z,8.6
2023-04-16T07:27:46.617Z,8.6
2023-04-16T07:28:59.473Z,8.6
2023-04-16T07:30:12.477Z,8.6
2023-04-16T07:31:25.511Z,8.6
2023-04-16T07:32:38.567Z,8.7
2023-04-16T07:33:51.417Z,8.7
2023-04-16T07:35:04.594Z,8.7
2023-04-16T07:36:17.404Z,8.7
2023-04-16T07:37:30.459Z,8.8
2023-04-16T07:38:43.484Z,8.8
2023-04-16T07:39:57.401Z,8.8
2023-04-16T07:41:09.495Z,8.8
2023-04-16T07:42:22.350Z,8.8
2023-04-16T07:43:35.471Z,9
2023-04-16T07:44:48.459Z,9
2023-04-16T07:46:01.182Z,8.9
2023-04-16T07:47:14.530Z,8.9
2023-04-16T07:48:27.546Z,9.1
2023-04-16T07:49:40.573Z,9.1
2023-04-16T07:50:53.436Z,9.1
2023-04-16T07:52:06.330Z,9.1
2023-04-16T07:53:19.441Z,9.2
2023-04-16T07:54:32.450Z,9.2
2023-04-16T07:55:45.815Z,9.2
2023-04-16T07:56:58.527Z,9.2
2023-04-16T07:58:11.476Z,9.2
2023-04-16T07:59:24.739Z,9.4
2023-04-16T08:00:37.694Z,9.3
2023-04-16T08:01:50.716Z,9.3
2023-04-16T08:03:03.490Z,9.3
2023-04-16T08:04:16.651Z,9.3
2023-04-16T08:05:29.659Z,9.3
2023-04-16T08:06:42.522Z,9.5
2023-04-16T08:07:55.478Z,9.5
2023-04-16T08:09:08.693Z,9.5
2023-04-16T08:10:21.516Z,9.5
2023-04-16T08:11:34.598Z,9.6
2023-04-16T08:12:47.417Z,9.7
2023-04-16T08:14:00.482Z,9.7
2023-04-16T08:15:13.495Z,9.7
2023-04-16T08:16:26.573Z,9.7
2023-04-16T08:17:39.560Z,9.7
2023-04-16T08:18:52.503Z,9.7
2023-04-16T08:20:05.463Z,9.7
2023-04-16T08:21:18.449Z,9.6
2023-04-16T08:22:31.470Z,9.6
2023-04-16T08:23:44.437Z,9.6
2023-04-16T08:24:57.643Z,9.7
2023-04-16T08:26:10.822Z,9.7
2023-04-16T08:27:23.498Z,9.7
2023-04-16T08:28:36.451Z,9.7
2023-04-16T08:29:49.907Z,9.7
2023-04-16T08:31:02.574Z,9.8
2023-04-16T08:32:15.450Z,9.9
2023-04-16T08:33:28.558Z,9.9
2023-04-16T08:34:41.468Z,10.1
2023-04-16T08:35:54.604Z,10.1
2023-04-16T08:37:07.522Z,10.1
2023-04-16T08:38:20.475Z,10
2023-04-16T08:39:33.492Z,10
2023-04-16T08:40:46.560Z,10.2
2023-04-16T08:41:59.574Z,10.2
2023-04-16T08:43:12.486Z,10.3
2023-04-16T08:44:25.673Z,10.3
2023-04-16T08:45:38.443Z,10.3
2023-04-16T08:46:51.673Z,10.4
2023-04-16T08:48:04.632Z,10.4
2023-04-16T08:49:17.451Z,10.4
2023-04-16T08:50:30.427Z,10.6
2023-04-16T08:51:43.628Z,10.6
2023-04-16T08:52:56.348Z,10.7
2023-04-16T08:54:09.670Z,10.7
2023-04-16T08:55:22.409Z,10.8
2023-04-16T08:56:35.514Z,10.9
2023-04-16T08:57:48.475Z,11
2023-04-16T08:59:01.631Z,10.9
2023-04-16T09:00:14.544Z,11.1
2023-04-16T09:01:27.487Z,11.1
2023-04-16T09:02:40.645Z,11.1
2023-04-16T09:03:53.648Z,11.2
2023-04-16T09:05:06.585Z,11.2
2023-04-16T09:06:20.088Z,11.2
2023-04-16T09:07:32.440Z,11.3
2023-04-16T09:08:45.670Z,11.3
2023-04-16T09:09:58.507Z,11.5
2023-04-16T09:11:11.586Z,11.5
2023-04-16T09:12:24.485Z,11.5
2023-04-16T09:13:37.587Z,11.5
2023-04-16T09:14:50.471Z,11.5
2023-04-16T09:16:03.606Z,11.5
2023-04-16T09:17:16.374Z,11.6
2023-04-16T09:18:29.759Z,11.6
2023-04-16T09:19:42.513Z,11.6
2023-04-16T09:20:55.560Z,11.6
2023-04-16T09:22:08.522Z,11.7
2023-04-16T09:23:21.572Z,11.7
2023-04-16T09:24:34.519Z,11.7
2023-04-16T09:25:47.474Z,11.7
2023-04-16T09:27:00.545Z,11.7
2023-04-16T09:28:13.509Z,11.7
2023-04-16T09:29:26.385Z,11.7
2023-04-16T09:30:39.536Z,11.7
2023-04-16T09:31:52.526Z,11.7
2023-04-16T09:33:05.506Z,11.7
2023-04-16T09:34:18.375Z,11.7
2023-04-16T09:35:31.532Z,11.7
2023-04-16T09:36:44.537Z,11.8
2023-04-16T09:37:57.545Z,11.9
2023-04-16T09:39:10.608Z,11.8
2023-04-16T09:40:23.492Z,11.9
2023-04-16T09:41:36.512Z,12
2023-04-16T09:42:49.515Z,12
2023-04-16T09:44:02.595Z,12
2023-04-16T09:45:15.841Z,12
2023-04-16T09:46:28.536Z,12
2023-04-16T09:47:41.727Z,12
2023-04-16T09:48:54.497Z,12.1
2023-04-16T09:50:07.567Z,12.2
2023-04-16T09:51:20.527Z,12.2
2023-04-16T09:52:33.514Z,12.2
2023-04-16T09:53:46.506Z,12.2
2023-04-16T09:54:59.383Z,12.2
2023-04-16T09:56:12.697Z,12.1
2023-04-16T09:57:25.699Z,12.1
2023-04-16T09:58:38.492Z,12.2
2023-04-16T09:59:51.513Z,12.2
2023-04-16T10:01:04.548Z,12.3
2023-04-16T10:02:17.495Z,12.2
2023-04-16T10:03:30.598Z,12.2
2023-04-16T10:04:43.541Z,12.2
2023-04-16T10:05:56.652Z,12.2
2023-04-16T10:07:09.511Z,12.2
2023-04-16T10:08:22.508Z,12.2
2023-04-16T10:09:35.516Z,12.2
2023-04-16T10:10:48.515Z,12.2
2023-04-16T10:12:01.384Z,12.2
2023-04-16T10:13:14.542Z,12.2
2023-04-16T10:14:27.491Z,12.3
2023-04-16T10:15:40.358Z,12.3
2023-04-16T10:16:53.398Z,12.2
2023-04-16T10:18:06.930Z,12.4
2023-04-16T10:19:19.407Z,12.4
2023-04-16T10:20:32.370Z,12.4
2023-04-16T10:21:45.352Z,12.4
2023-04-16T10:22:58.400Z,12.4
2023-04-16T10:24:11.347Z,12.5
2023-04-16T10:25:24.423Z,12.6
2023-04-16T10:26:37.425Z,12.6
2023-04-16T10:27:50.414Z,12.6
2023-04-16T10:29:03.452Z,12.6
2023-04-16T10:30:16.128Z,12.7
2023-04-16T10:31:29.540Z,12.7
2023-04-16T10:32:42.498Z,12.8
2023-04-16T10:33:55.735Z,12.9
2023-04-16T10:35:08.544Z,12.9
2023-04-16T10:36:21.440Z,12.9
2023-04-16T10:37:34.408Z,12.9
2023-04-16T10:38:47.414Z,12.9
2023-04-16T10:40:00.580Z,12.9
2023-04-16T10:41:13.390Z,12.9
2023-04-16T10:42:26.413Z,12.9
2023-04-16T10:43:39.499Z,12.9
2023-04-16T10:44:52.739Z,12.9
2023-04-16T10:46:05.451Z,13
2023-04-16T10:47:18.412Z,13.2
2023-04-16T10:48:42.302Z,13.2
2023-04-16T10:49:44.324Z,13.3
2023-04-16T10:50:57.379Z,13.3
2023-04-16T10:52:10.392Z,13.3
2023-04-16T10:53:23.433Z,13.3
2023-04-16T10:54:36.918Z,13.3
2023-04-16T10:55:49.411Z,13.4
2023-04-16T10:57:04.236Z,13.5
2023-04-16T10:58:15.412Z,13.5
2023-04-16T10:59:28.263Z,13.5
2023-04-16T11:00:41.367Z,13.5
2023-04-16T11:01:54.566Z,13.5
2023-04-16T11:03:07.561Z,13.5
2023-04-16T11:04:20.464Z,13.4
2023-04-16T11:05:33.415Z,13.3
2023-04-16T11:06:46.487Z,13.5
2023-04-16T11:07:59.383Z,13.5
2023-04-16T11:09:12.527Z,13.5
2023-04-16T11:10:25.553Z,13.5
2023-04-16T11:11:38.691Z,13.3
2023-04-16T11:12:51.472Z,13.3
2023-04-16T11:14:04.482Z,13.3
2023-04-16T11:15:17.426Z,13.5
2023-04-16T11:16:30.454Z,13.5
2023-04-16T11:17:43.332Z,13.5
2023-04-16T11:18:57.065Z,13.5
2023-04-16T11:20:13.561Z,13.5
2023-04-16T11:21:22.396Z,13.5
2023-04-16T11:22:35.485Z,13.5
2023-04-16T11:23:48.414Z,13.5
2023-04-16T11:25:01.589Z,13.5
2023-04-16T11:26:14.401Z,13.3
2023-04-16T11:27:27.418Z,13.3
2023-04-16T11:28:40.528Z,13.3
2023-04-16T11:29:53.395Z,13.3
2023-04-16T11:31:06.467Z,13.3
2023-04-16T11:32:19.418Z,13.5
2023-04-16T11:33:32.421Z,13.5
2023-04-16T11:34:45.408Z,13.6
2023-04-16T11:35:58.314Z,13.6
2023-04-16T11:37:11.391Z,13.6
2023-04-16T11:38:24.264Z,13.4
2023-04-16T11:39:37.350Z,13.5
2023-04-16T11:40:50.296Z,13.5
2023-04-16T11:42:03.648Z,13.5
2023-04-16T11:43:16.415Z,13.3
2023-04-16T11:44:29.403Z,13.3
2023-04-16T11:45:42.722Z,13.3
2023-04-16T11:46:55.586Z,13.3
2023-04-16T11:48:10.640Z,13.3
2023-04-16T11:49:21.390Z,13.3
2023-04-16T11:50:34.594Z,13.3
2023-04-16T11:51:47.386Z,13.3
2023-04-16T11:53:00.385Z,13.3
2023-04-16T11:54:13.376Z,13.5
2023-04-16T11:55:26.579Z,13.5
2023-04-16T11:56:39.437Z,13.6
2023-04-16T11:57:52.616Z,13.6
2023-04-16T11:59:05.556Z,13.8
2023-04-16T12:00:18.541Z,13.8
2023-04-16T12:01:31.327Z,13.9
2023-04-16T12:02:44.492Z,13.8
2023-04-16T12:03:57.605Z,13.8
2023-04-16T12:05:10.556Z,13.9
2023-04-16T12:06:24.454Z,13.9
2023-04-16T12:07:36.427Z,13.8
2023-04-16T12:08:49.571Z,13.8
2023-04-16T12:10:02.417Z,13.8
2023-04-16T12:11:15.461Z,13.8
2023-04-16T12:12:28.446Z,13.8
2023-04-16T12:13:41.572Z,13.9
2023-04-16T12:14:54.245Z,14
2023-04-16T12:16:07.432Z,14.1
2023-04-16T12:17:20.429Z,14.2
2023-04-16T12:18:33.398Z,14.2
2023-04-16T12:19:46.371Z,14.2
2023-04-16T12:20:59.462Z,14.1
2023-04-16T12:22:12.557Z,14
2023-04-16T12:23:26.516Z,14
2023-04-16T12:24:38.351Z,14
2023-04-16T12:25:51.360Z,14
2023-04-16T12:27:04.368Z,14
2023-04-16T12:28:17.354Z,14
2023-04-16T12:29:30.348Z,14
2023-04-16T12:30:43.390Z,14
2023-04-16T12:31:56.392Z,14.1
2023-04-16T12:33:09.421Z,14.2
2023-04-16T12:34:22.388Z,14.2
2023-04-16T12:35:35.409Z,14.2
2023-04-16T12:36:48.409Z,14.2
2023-04-16T12:38:01.515Z,14
2023-04-16T12:39:14.354Z,14
2023-04-16T12:40:27.414Z,13.8
2023-04-16T12:41:40.401Z,13.9
2023-04-16T12:42:53.394Z,13.8
2023-04-16T12:44:06.367Z,13.8
2023-04-16T12:45:19.865Z,13.9
2023-04-16T12:46:32.425Z,13.9
2023-04-16T12:47:45.441Z,13.9
2023-04-16T12:48:58.428Z,13.9
2023-04-16T12:50:11.413Z,13.9
2023-04-16T12:51:24.476Z,13.9
2023-04-16T12:52:37.496Z,13.9
2023-04-16T12:53:50.557Z,13.9
2023-04-16T12:55:03.854Z,13.8
2023-04-16T12:56:16.397Z,13.8
2023-04-16T12:57:29.402Z,13.8
2023-04-16T12:58:42.457Z,13.9
2023-04-16T12:59:55.421Z,13.9
2023-04-16T13:01:08.459Z,13.9
2023-04-16T13:02:21.552Z,13.9
2023-04-16T13:03:34.540Z,13.9
2023-04-16T13:04:47.817Z,13.8
2023-04-16T13:06:00.255Z,13.8
2023-04-16T13:07:13.278Z,13.8
2023-04-16T13:08:26.421Z,13.9
2023-04-16T13:09:40.113Z,14
2023-04-16T13:10:52.450Z,14
2023-04-16T13:12:05.518Z,14
2023-04-16T13:13:18.397Z,14
2023-04-16T13:14:31.544Z,14
2023-04-16T13:15:44.332Z,14
2023-04-16T13:16:57.393Z,14
2023-04-16T13:18:10.432Z,14
2023-04-16T13:19:23.378Z,14
2023-04-16T13:20:36.414Z,13.9
2023-04-16T13:21:49.428Z,13.8
2023-04-16T13:23:02.461Z,13.8
2023-04-16T13:24:15.417Z,13.9
2023-04-16T13:25:28.404Z,13.8
2023-04-16T13:26:41.410Z,13.8
2023-04-16T13:27:54.450Z,13.8
2023-04-16T13:29:07.466Z,13.8
2023-04-16T13:30:20.368Z,13.8
2023-04-16T13:31:33.486Z,13.8
2023-04-16T13:32:46.398Z,13.8
2023-04-16T13:33:59.509Z,13.8
2023-04-16T13:35:12.340Z,13.8
2023-04-16T13:36:27.044Z,13.8
2023-04-16T13:37:38.380Z,13.8
2023-04-16T13:38:51.363Z,13.8
2023-04-16T13:40:04.369Z,13.8
2023-04-16T13:41:17.411Z,13.8
2023-04-16T13:42:30.362Z,13.8
2023-04-16T13:43:43.508Z,13.8
2023-04-16T13:44:56.308Z,13.8
2023-04-16T13:46:09.563Z,13.9
2023-04-16T13:47:22.411Z,13.9
2023-04-16T13:48:35.389Z,13.9
2023-04-16T13:49:48.321Z,13.9
2023-04-16T13:51:01.396Z,13.9
2023-04-16T13:52:14.363Z,13.9
2023-04-16T13:53:27.372Z,13.9
2023-04-16T13:54:40.561Z,13.9
2023-04-16T13:55:53.367Z,13.8
2023-04-16T13:57:06.408Z,13.8
2023-04-16T13:58:19.356Z,13.8
2023-04-16T13:59:32.224Z,13.9
2023-04-16T14:00:45.523Z,13.8
2023-04-16T14:01:58.383Z,13.8
2023-04-16T14:03:11.421Z,13.9
2023-04-16T14:04:24.510Z,13.9
2023-04-16T14:05:37.221Z,13.9
2023-04-16T14:06:50.423Z,13.9
2023-04-16T14:08:03.342Z,13.9
2023-04-16T14:09:16.414Z,13.8
2023-04-16T14:10:29.389Z,13.9
2023-04-16T14:11:42.366Z,14
2023-04-16T14:12:55.369Z,14
2023-04-16T14:14:08.406Z,14
2023-04-16T14:15:21.333Z,14
2023-04-16T14:16:34.466Z,14
2023-04-16T14:17:47.468Z,14
2023-04-16T14:19:00.295Z,14
2023-04-16T14:20:13.330Z,14
2023-04-16T14:21:26.363Z,14
2023-04-16T14:22:39.321Z,14
2023-04-16T14:23:52.323Z,14
2023-04-16T14:25:05.329Z,14
2023-04-16T14:26:18.339Z,14
2023-04-16T14:27:31.330Z,14
2023-04-16T14:28:44.351Z,14.2
2023-04-16T14:29:57.449Z,14.2
2023-04-16T14:31:10.458Z,14.2
2023-04-16T14:32:23.355Z,14.2
2023-04-16T14:33:36.753Z,14.2
2023-04-16T14:34:49.353Z,14.2
2023-04-16T14:36:03.555Z,14.2
2023-04-16T14:37:15.310Z,14
2023-04-16T14:38:28.448Z,14
2023-04-16T14:39:41.310Z,14
2023-04-16T14:40:54.336Z,14
2023-04-16T14:42:07.341Z,14
2023-04-16T14:43:20.318Z,14
2023-04-16T14:44:33.362Z,14
2023-04-16T14:45:46.423Z,13.8
2023-04-16T14:46:59.309Z,14
2023-04-16T14:48:12.491Z,14
2023-04-16T14:49:25.313Z,14
2023-04-16T14:50:38.336Z,14
2023-04-16T14:51:51.349Z,14
2023-04-16T14:53:04.764Z,14
2023-04-16T14:54:17.289Z,14
2023-04-16T14:55:30.282Z,14
2023-04-16T14:56:43.323Z,14
2023-04-16T14:57:56.356Z,14
2023-04-16T14:59:09.748Z,14
2023-04-16T15:00:22.300Z,14
2023-04-16T15:01:35.326Z,14
2023-04-16T15:02:48.448Z,14
2023-04-16T15:04:02.216Z,14
2023-04-16T15:05:14.326Z,14
2023-04-16T15:06:28.021Z,14
2023-04-16T15:07:40.346Z,14
2023-04-16T15:08:53.314Z,14
2023-04-16T15:10:06.365Z,14
2023-04-16T15:11:19.465Z,14
2023-04-16T15:12:32.507Z,14.2
2023-04-16T15:13:45.333Z,14.2
2023-04-16T15:14:58.492Z,14.2
2023-04-16T15:16:11.347Z,14.2
2023-04-16T15:17:24.373Z,14.1
2023-04-16T15:18:37.436Z,14
2023-04-16T15:19:50.469Z,14
2023-04-16T15:21:03.484Z,14
2023-04-16T15:22:16.338Z,14
2023-04-16T15:23:29.322Z,14
2023-04-16T15:24:42.318Z,14
2023-04-16T15:25:55.379Z,13.8
2023-04-16T15:27:10.499Z,13.9
2023-04-16T15:28:21.400Z,13.9
2023-04-16T15:29:34.448Z,13.8
2023-04-16T15:30:47.578Z,13.8
2023-04-16T15:32:00.504Z,13.8
2023-04-16T15:33:13.338Z,13.8
2023-04-16T15:34:26.318Z,13.8
2023-04-16T15:35:39.340Z,13.8
2023-04-16T15:36:52.320Z,13.8
2023-04-16T15:38:05.348Z,13.8
2023-04-16T15:39:18.498Z,13.8
2023-04-16T15:40:31.372Z,13.8
2023-04-16T15:41:57.319Z,13.8
2023-04-16T15:42:57.362Z,13.8
2023-04-16T15:44:10.381Z,13.8
2023-04-16T15:45:23.361Z,13.8
2023-04-16T15:46:36.454Z,13.8
2023-04-16T15:47:49.399Z,13.8
2023-04-16T15:49:02.352Z,13.8
2023-04-16T15:50:15.364Z,13.8
2023-04-16T15:51:28.358Z,13.8
2023-04-16T15:52:41.461Z,13.6
2023-04-16T15:53:54.382Z,13.6
2023-04-16T15:55:07.388Z,13.6
2023-04-16T15:56:20.378Z,13.6
2023-04-16T15:57:33.366Z,13.6
2023-04-16T15:58:46.351Z,13.7
2023-04-16T16:00:05.732Z,13.8
2023-04-16T16:01:12.390Z,13.8
2023-04-16T16:02:25.531Z,13.8
2023-04-16T16:03:38.436Z,13.8
2023-04-16T16:04:51.409Z,13.7
2023-04-16T16:06:04.355Z,13.6
2023-04-16T16:07:17.332Z,13.6
2023-04-16T16:08:30.300Z,13.6
2023-04-16T16:09:43.416Z,13.6
2023-04-16T16:10:56.359Z,13.6
2023-04-16T16:12:09.540Z,13.6
2023-04-16T16:13:22.356Z,13.8
2023-04-16T16:14:35.376Z,13.8
2023-04-16T16:15:48.409Z,13.8
2023-04-16T16:17:01.354Z,13.8
2023-04-16T16:18:14.825Z,13.8
2023-04-16T16:19:27.387Z,13.8
2023-04-16T16:20:40.422Z,13.8
2023-04-16T16:21:53.046Z,13.8
2023-04-16T16:23:06.671Z,13.8
2023-04-16T16:24:19.371Z,13.8
2023-04-16T16:25:32.369Z,13.8
2023-04-16T16:26:45.368Z,13.8
2023-04-16T16:27:58.411Z,13.8
2023-04-16T16:29:11.677Z,13.7
2023-04-16T16:30:24.525Z,13.6
2023-04-16T16:31:37.755Z,13.6
2023-04-16T16:32:50.232Z,13.6
2023-04-16T16:34:03.337Z,13.6
2023-04-16T16:35:16.342Z,13.6
2023-04-16T16:36:29.341Z,13.6